St Solene — FVDG — position and weather

sailwx.info

Track history (hours):
 
Tides and Currents Weather Stations Pressure Air Temp Water Temp Dewpoint Dewpoint Depression Visibility Wind Speed Wind Dir Waves Ship Positions

St Solene

Last reported at 2016-May-23 15:27 UTC. Time now 2016-May-25 22:39 UTC.
Position N 43°26' E 004°54'.

Length 104 m; draft 5.8 m.

Type: Tanker. MMSI: 226302000.

Date/timePositionNaut miles runAvg speedWind from/ knotsBaromVisibWave heightAir tempDewpointWater temp
2016-May-23 15:27N 43°26' E 004°54'0 0.0
2016-May-23 14:12N 43°26' E 004°54'0 0.0
2016-May-23 12:30N 43°26' E 004°54'2 1.6
2016-May-23 11:33N 43°24' E 004°55'0 0.4
2016-May-23 10:30N 43°24' E 004°55'0 0.0
2016-May-23 09:33N 43°24' E 004°55'0 0.0
2016-May-23 08:33N 43°24' E 004°55'0 0.0
2016-May-23 07:33N 43°24' E 004°55'0 0.0
2016-May-23 06:33N 43°24' E 004°55'0 0.0
2016-May-23 05:33N 43°24' E 004°55'0 0.0
2016-May-23 04:33N 43°24' E 004°55'0 0.0
2016-May-23 03:33N 43°24' E 004°55'0 0.0
2016-May-23 02:30N 43°24' E 004°55'0 0.0
2016-May-23 01:33N 43°24' E 004°55'0 0.0
2016-May-23 00:33N 43°24' E 004°55'0 0.0
2016-May-22 23:33N 43°24' E 004°55'0 0.0
2016-May-22 22:33N 43°24' E 004°55'0 0.0
2016-May-22 21:33N 43°24' E 004°55'0 0.0
2016-May-22 20:33N 43°24' E 004°55'0 0.0
2016-May-22 19:30N 43°24' E 004°55'0 0.2
2016-May-22 18:33N 43°24' E 004°55'0 0.1
2016-May-22 17:33N 43°24' E 004°55'0 0.0
2016-May-22 16:30N 43°24' E 004°55'0 0.0
2016-May-22 15:30N 43°24' E 004°55'0 0.0
2016-May-22 14:33N 43°24' E 004°55'0 0.0
2016-May-22 13:33N 43°24' E 004°55'1 0.7
2016-May-22 12:33N 43°24' E 004°56'3 2.7
2016-May-22 11:30N 43°24' E 004°60'0 0.0
2016-May-22 10:33N 43°24' E 004°60'0 0.0
2016-May-22 09:33N 43°24' E 004°60'0 0.0
2016-May-22 08:30N 43°24' E 004°60'0 0.0
2016-May-22 07:33N 43°24' E 004°60'0 0.0
2016-May-22 06:33N 43°24' E 004°60'0 0.0
2016-May-22 05:30N 43°24' E 004°60'0 0.0
2016-May-22 04:33N 43°24' E 004°60'0 0.0
2016-May-22 03:33N 43°24' E 004°60'0 0.0
2016-May-22 02:34N 43°24' E 004°60'0 0.0
2016-May-22 01:34N 43°24' E 004°60'0 0.0
2016-May-22 00:33N 43°24' E 004°60'0 0.0
2016-May-21 23:34N 43°24' E 004°60'0 0.0
2016-May-21 22:34N 43°24' E 004°60'0 0.0
2016-May-21 21:34N 43°24' E 004°60'0 0.1
2016-May-21 20:34N 43°24' E 004°60'7 6.8
2016-May-21 19:34N 43°17' E 005°00'8 7.6
2016-May-21 18:33N 43°12' E 004°52'1313.4
2016-May-21 17:33N 43°14' E 004°34'1313.0
2016-May-21 16:33N 43°16' E 004°16'1312.9
2016-May-21 15:31N 43°17' E 003°58'13 0.6
2016-May-20 18:29N 43°24' E 003°43'5 0.4
2016-May-20 04:18N 43°21' E 003°49'38 9.3
2016-May-20 00:12N 43°14' E 004°40'6 9.2
2016-May-19 23:33N 43°13' E 004°48'8 8.3
2016-May-19 22:33N 43°12' E 004°59'7 7.3
2016-May-19 21:33N 43°19' E 004°59'5 5.2
2016-May-19 20:32N 43°24' E 004°57'0 0.0
2016-May-19 19:32N 43°24' E 004°57'0 0.0
2016-May-19 18:32N 43°24' E 004°57'0 0.0
2016-May-19 17:32N 43°24' E 004°57'0 0.0
2016-May-19 16:32N 43°24' E 004°57'0 0.0
2016-May-19 15:32N 43°25' E 004°57'0 0.0
2016-May-19 14:32N 43°25' E 004°57'0 0.0
2016-May-19 13:32N 43°25' E 004°57'0 0.0
2016-May-19 12:29N 43°25' E 004°57'0 0.0
2016-May-19 11:32N 43°25' E 004°57'0 0.0
2016-May-19 10:32N 43°25' E 004°57'0 0.0
2016-May-19 09:29N 43°25' E 004°57'0 0.1
2016-May-19 08:29N 43°25' E 004°57'0 0.0
2016-May-19 07:32N 43°25' E 004°57'0 0.0
2016-May-19 06:32N 43°25' E 004°57'0 0.0
2016-May-19 05:32N 43°25' E 004°57'0 0.0
2016-May-19 04:32N 43°25' E 004°57'0 0.0
2016-May-19 03:32N 43°25' E 004°57'0 0.0
2016-May-19 02:32N 43°25' E 004°57'0 0.0
2016-May-19 01:29N 43°25' E 004°57'0 0.1
2016-May-19 00:29N 43°25' E 004°56'0 0.0
2016-May-18 23:32N 43°25' E 004°56'0 0.1
2016-May-18 22:32N 43°25' E 004°56'0 0.0
2016-May-18 21:32N 43°25' E 004°56'0 0.0
2016-May-18 20:29N 43°25' E 004°56'0 0.0
2016-May-18 19:23N 43°25' E 004°56'0 0.0
2016-May-18 18:32N 43°25' E 004°56'0 0.0
2016-May-18 17:33N 43°25' E 004°56'6 6.0
2016-May-18 16:33N 43°19' E 004°59'1212.1
2016-May-18 15:32N 43°08' E 005°05'1712.3
2016-May-18 14:08N 42°57' E 005°23'15812.6
2016-May-18 01:33N 43°11' E 008°58'1313.5
2016-May-18 00:33N 43°13' E 009°17'1312.7
2016-May-17 23:33N 43°11' E 009°34'2913.3
2016-May-17 21:23N 42°43' E 009°41'27 0.9
2016-May-16 17:07N 43°09' E 009°36'813.6
2016-May-16 16:30N 43°13' E 009°26'1213.1
2016-May-16 15:33N 43°12' E 009°09'18111.3
2016-May-15 23:33N 43°14' E 005°00'1010.0
2016-May-15 22:31N 43°24' E 004°60'0 0.0
2016-May-15 21:31N 43°24' E 004°60'0 0.0
2016-May-15 20:31N 43°24' E 004°60'0 0.0
2016-May-15 19:31N 43°24' E 004°60'0 0.0
2016-May-15 18:31N 43°24' E 004°60'0 0.0
2016-May-15 17:31N 43°24' E 004°60'0 0.0
2016-May-15 16:31N 43°24' E 004°60'0 0.0
2016-May-15 15:31N 43°24' E 004°60'0 0.0
2016-May-15 14:31N 43°24' E 004°60'0 0.0
2016-May-15 13:31N 43°24' E 004°60'0 0.0
2016-May-15 12:33N 43°24' E 004°60'3 2.9
2016-May-15 11:31N 43°25' E 004°56'0 0.0
2016-May-15 10:25N 43°25' E 004°56'0 0.0
2016-May-15 09:31N 43°25' E 004°56'0 0.0
2016-May-15 08:31N 43°25' E 004°56'0 0.0
2016-May-15 07:31N 43°25' E 004°56'0 0.0
2016-May-15 06:28N 43°25' E 004°56'0 0.0
2016-May-15 05:31N 43°25' E 004°56'0 0.0
2016-May-15 04:28N 43°25' E 004°56'0 0.0
2016-May-15 03:31N 43°25' E 004°56'0 0.0
2016-May-15 02:31N 43°25' E 004°56'0 0.0
2016-May-15 01:31N 43°25' E 004°56'0 0.0
2016-May-15 00:31N 43°25' E 004°56'0 0.0
2016-May-14 23:31N 43°25' E 004°56'0 0.0
2016-May-14 22:31N 43°25' E 004°56'0 0.0
2016-May-14 21:31N 43°25' E 004°56'0 0.0
2016-May-14 20:31N 43°25' E 004°56'0 0.0
2016-May-14 19:31N 43°25' E 004°56'0 0.0
2016-May-14 18:31N 43°25' E 004°56'0 0.0
2016-May-14 17:31N 43°25' E 004°56'0 0.0
2016-May-14 16:31N 43°25' E 004°56'0 0.0
2016-May-14 15:31N 43°25' E 004°56'0 0.0
2016-May-14 14:31N 43°25' E 004°56'0 0.0
2016-May-14 13:31N 43°25' E 004°56'0 0.0
2016-May-14 12:28N 43°25' E 004°56'0 0.0
2016-May-14 11:31N 43°25' E 004°56'0 0.0
2016-May-14 10:31N 43°25' E 004°56'1 0.5
2016-May-14 09:33N 43°24' E 004°56'0 0.3
2016-May-14 08:32N 43°24' E 004°56'0 0.1
2016-May-14 07:32N 43°24' E 004°56'0 0.0
2016-May-14 06:32N 43°24' E 004°56'0 0.0
2016-May-14 05:32N 43°24' E 004°56'0 0.0
2016-May-14 04:32N 43°24' E 004°56'0 0.0
2016-May-14 03:31N 43°24' E 004°56'0 0.0
2016-May-14 02:31N 43°24' E 004°56'0 0.0
2016-May-14 01:31N 43°24' E 004°56'0 0.0
2016-May-14 00:32N 43°24' E 004°56'0 0.0
2016-May-13 23:32N 43°24' E 004°56'0 0.0
2016-May-13 22:32N 43°24' E 004°56'0 0.0
2016-May-13 21:33N 43°24' E 004°56'0 0.0
2016-May-13 20:31N 43°24' E 004°56'0 0.0
2016-May-13 19:33N 43°24' E 004°56'0 0.0
2016-May-13 18:29N 43°24' E 004°56'0 0.0
2016-May-13 17:32N 43°24' E 004°56'0 0.0
2016-May-13 16:29N 43°24' E 004°56'0 0.0
2016-May-13 15:32N 43°24' E 004°56'  
Track history (hours):
 
Tides and Currents Weather Stations Pressure Air Temp Water Temp Dewpoint Dewpoint Depression Visibility Wind Speed Wind Dir Waves Ship Positions

St Solene

Last reported at 2016-May-23 15:27 UTC. Time now 2016-May-25 22:39 UTC.
Position N 43°26' E 004°54'.

Length 104 m; draft 5.8 m.

Type: Tanker. MMSI: 226302000.

Date/timePositionNaut miles runAvg speedWind from/ knotsBaromVisibWave heightAir tempDewpointWater temp
2016-May-23 15:27N 43°26' E 004°54'0 0.0
2016-May-23 14:12N 43°26' E 004°54'0 0.0
2016-May-23 12:30N 43°26' E 004°54'2 1.6
2016-May-23 11:33N 43°24' E 004°55'0 0.4
2016-May-23 10:30N 43°24' E 004°55'0 0.0
2016-May-23 09:33N 43°24' E 004°55'0 0.0
2016-May-23 08:33N 43°24' E 004°55'0 0.0
2016-May-23 07:33N 43°24' E 004°55'0 0.0
2016-May-23 06:33N 43°24' E 004°55'0 0.0
2016-May-23 05:33N 43°24' E 004°55'0 0.0
2016-May-23 04:33N 43°24' E 004°55'0 0.0
2016-May-23 03:33N 43°24' E 004°55'0 0.0
2016-May-23 02:30N 43°24' E 004°55'0 0.0
2016-May-23 01:33N 43°24' E 004°55'0 0.0
2016-May-23 00:33N 43°24' E 004°55'0 0.0
2016-May-22 23:33N 43°24' E 004°55'0 0.0
2016-May-22 22:33N 43°24' E 004°55'0 0.0
2016-May-22 21:33N 43°24' E 004°55'0 0.0
2016-May-22 20:33N 43°24' E 004°55'0 0.0
2016-May-22 19:30N 43°24' E 004°55'0 0.2
2016-May-22 18:33N 43°24' E 004°55'0 0.1
2016-May-22 17:33N 43°24' E 004°55'0 0.0
2016-May-22 16:30N 43°24' E 004°55'0 0.0
2016-May-22 15:30N 43°24' E 004°55'0 0.0
2016-May-22 14:33N 43°24' E 004°55'0 0.0
2016-May-22 13:33N 43°24' E 004°55'1 0.7
2016-May-22 12:33N 43°24' E 004°56'3 2.7
2016-May-22 11:30N 43°24' E 004°60'0 0.0
2016-May-22 10:33N 43°24' E 004°60'0 0.0
2016-May-22 09:33N 43°24' E 004°60'0 0.0
2016-May-22 08:30N 43°24' E 004°60'0 0.0
2016-May-22 07:33N 43°24' E 004°60'0 0.0
2016-May-22 06:33N 43°24' E 004°60'0 0.0
2016-May-22 05:30N 43°24' E 004°60'0 0.0
2016-May-22 04:33N 43°24' E 004°60'0 0.0
2016-May-22 03:33N 43°24' E 004°60'0 0.0
2016-May-22 02:34N 43°24' E 004°60'0 0.0
2016-May-22 01:34N 43°24' E 004°60'0 0.0
2016-May-22 00:33N 43°24' E 004°60'0 0.0
2016-May-21 23:34N 43°24' E 004°60'0 0.0
2016-May-21 22:34N 43°24' E 004°60'0 0.0
2016-May-21 21:34N 43°24' E 004°60'0 0.1
2016-May-21 20:34N 43°24' E 004°60'7 6.8
2016-May-21 19:34N 43°17' E 005°00'8 7.6
2016-May-21 18:33N 43°12' E 004°52'1313.4
2016-May-21 17:33N 43°14' E 004°34'1313.0
2016-May-21 16:33N 43°16' E 004°16'1312.9
2016-May-21 15:31N 43°17' E 003°58'13 0.6
2016-May-20 18:29N 43°24' E 003°43'5 0.4
2016-May-20 04:18N 43°21' E 003°49'38 9.3
2016-May-20 00:12N 43°14' E 004°40'6 9.2
2016-May-19 23:33N 43°13' E 004°48'8 8.3
2016-May-19 22:33N 43°12' E 004°59'7 7.3
2016-May-19 21:33N 43°19' E 004°59'5 5.2
2016-May-19 20:32N 43°24' E 004°57'0 0.0
2016-May-19 19:32N 43°24' E 004°57'0 0.0
2016-May-19 18:32N 43°24' E 004°57'0 0.0
2016-May-19 17:32N 43°24' E 004°57'0 0.0
2016-May-19 16:32N 43°24' E 004°57'0 0.0
2016-May-19 15:32N 43°25' E 004°57'0 0.0
2016-May-19 14:32N 43°25' E 004°57'0 0.0
2016-May-19 13:32N 43°25' E 004°57'0 0.0
2016-May-19 12:29N 43°25' E 004°57'0 0.0
2016-May-19 11:32N 43°25' E 004°57'0 0.0
2016-May-19 10:32N 43°25' E 004°57'0 0.0
2016-May-19 09:29N 43°25' E 004°57'0 0.1
2016-May-19 08:29N 43°25' E 004°57'0 0.0
2016-May-19 07:32N 43°25' E 004°57'0 0.0
2016-May-19 06:32N 43°25' E 004°57'0 0.0
2016-May-19 05:32N 43°25' E 004°57'0 0.0
2016-May-19 04:32N 43°25' E 004°57'0 0.0
2016-May-19 03:32N 43°25' E 004°57'0 0.0
2016-May-19 02:32N 43°25' E 004°57'0 0.0
2016-May-19 01:29N 43°25' E 004°57'0 0.1
2016-May-19 00:29N 43°25' E 004°56'0 0.0
2016-May-18 23:32N 43°25' E 004°56'0 0.1
2016-May-18 22:32N 43°25' E 004°56'0 0.0
2016-May-18 21:32N 43°25' E 004°56'0 0.0
2016-May-18 20:29N 43°25' E 004°56'0 0.0
2016-May-18 19:23N 43°25' E 004°56'0 0.0
2016-May-18 18:32N 43°25' E 004°56'0 0.0
2016-May-18 17:33N 43°25' E 004°56'6 6.0
2016-May-18 16:33N 43°19' E 004°59'1212.1
2016-May-18 15:32N 43°08' E 005°05'1712.3
2016-May-18 14:08N 42°57' E 005°23'15812.6
2016-May-18 01:33N 43°11' E 008°58'1313.5
2016-May-18 00:33N 43°13' E 009°17'1312.7
2016-May-17 23:33N 43°11' E 009°34'2913.3
2016-May-17 21:23N 42°43' E 009°41'27 0.9
2016-May-16 17:07N 43°09' E 009°36'813.6
2016-May-16 16:30N 43°13' E 009°26'1213.1
2016-May-16 15:33N 43°12' E 009°09'18111.3
2016-May-15 23:33N 43°14' E 005°00'1010.0
2016-May-15 22:31N 43°24' E 004°60'0 0.0
2016-May-15 21:31N 43°24' E 004°60'0 0.0
2016-May-15 20:31N 43°24' E 004°60'0 0.0
2016-May-15 19:31N 43°24' E 004°60'0 0.0
2016-May-15 18:31N 43°24' E 004°60'0 0.0
2016-May-15 17:31N 43°24' E 004°60'0 0.0
2016-May-15 16:31N 43°24' E 004°60'0 0.0
2016-May-15 15:31N 43°24' E 004°60'0 0.0
2016-May-15 14:31N 43°24' E 004°60'0 0.0
2016-May-15 13:31N 43°24' E 004°60'0 0.0
2016-May-15 12:33N 43°24' E 004°60'3 2.9
2016-May-15 11:31N 43°25' E 004°56'0 0.0
2016-May-15 10:25N 43°25' E 004°56'0 0.0
2016-May-15 09:31N 43°25' E 004°56'0 0.0
2016-May-15 08:31N 43°25' E 004°56'0 0.0
2016-May-15 07:31N 43°25' E 004°56'0 0.0
2016-May-15 06:28N 43°25' E 004°56'0 0.0
2016-May-15 05:31N 43°25' E 004°56'0 0.0
2016-May-15 04:28N 43°25' E 004°56'0 0.0
2016-May-15 03:31N 43°25' E 004°56'0 0.0
2016-May-15 02:31N 43°25' E 004°56'0 0.0
2016-May-15 01:31N 43°25' E 004°56'0 0.0
2016-May-15 00:31N 43°25' E 004°56'0 0.0
2016-May-14 23:31N 43°25' E 004°56'0 0.0
2016-May-14 22:31N 43°25' E 004°56'0 0.0
2016-May-14 21:31N 43°25' E 004°56'0 0.0
2016-May-14 20:31N 43°25' E 004°56'0 0.0
2016-May-14 19:31N 43°25' E 004°56'0 0.0
2016-May-14 18:31N 43°25' E 004°56'0 0.0
2016-May-14 17:31N 43°25' E 004°56'0 0.0
2016-May-14 16:31N 43°25' E 004°56'0 0.0
2016-May-14 15:31N 43°25' E 004°56'0 0.0
2016-May-14 14:31N 43°25' E 004°56'0 0.0
2016-May-14 13:31N 43°25' E 004°56'0 0.0
2016-May-14 12:28N 43°25' E 004°56'0 0.0
2016-May-14 11:31N 43°25' E 004°56'0 0.0
2016-May-14 10:31N 43°25' E 004°56'1 0.5
2016-May-14 09:33N 43°24' E 004°56'0 0.3
2016-May-14 08:32N 43°24' E 004°56'0 0.1
2016-May-14 07:32N 43°24' E 004°56'0 0.0
2016-May-14 06:32N 43°24' E 004°56'0 0.0
2016-May-14 05:32N 43°24' E 004°56'0 0.0
2016-May-14 04:32N 43°24' E 004°56'0 0.0
2016-May-14 03:31N 43°24' E 004°56'0 0.0
2016-May-14 02:31N 43°24' E 004°56'0 0.0
2016-May-14 01:31N 43°24' E 004°56'0 0.0
2016-May-14 00:32N 43°24' E 004°56'0 0.0
2016-May-13 23:32N 43°24' E 004°56'0 0.0
2016-May-13 22:32N 43°24' E 004°56'0 0.0
2016-May-13 21:33N 43°24' E 004°56'0 0.0
2016-May-13 20:31N 43°24' E 004°56'0 0.0
2016-May-13 19:33N 43°24' E 004°56'0 0.0
2016-May-13 18:29N 43°24' E 004°56'0 0.0
2016-May-13 17:32N 43°24' E 004°56'0 0.0
2016-May-13 16:29N 43°24' E 004°56'0 0.0
2016-May-13 15:32N 43°24' E 004°56'  

Dump ship's entire track history